Time;durP1;ratioP1;P1;durP2;ratioP2;P2;SDS_P1;SDS_P2;PMS_P1;PMS_P2;Temp;Humidity;BMP_temperature;BMP_pressure;BME280_temperature;BME280_humidity;BME280_pressure;Samples;Min_cycle;Max_cycle;Signal;HPM_P1;HPM_P2
2022/09/25 00:00:55;;;;;;;43.53;26.90;;;26.90;99.90;;;;;;5075402;28;20249;-66
2022/09/25 00:03:25;;;;;;;35.33;24.13;;;26.80;99.90;;;;;;5075086;28;20025;-66
2022/09/25 00:05:59;;;;;;;42.53;24.20;;;26.80;99.90;;;;;;5074929;28;20036;-65
2022/09/25 00:08:25;;;;;;;42.65;22.52;;;26.80;99.90;;;;;;5075042;28;20040;-65
2022/09/25 00:10:52;;;;;;;32.45;21.92;;;26.80;99.90;;;;;;5075039;28;20391;-66
2022/09/25 00:13:20;;;;;;;39.47;23.17;;;26.80;99.90;;;;;;5075237;28;20017;-66
2022/09/25 00:15:49;;;;;;;35.95;21.63;;;26.80;99.90;;;;;;5074547;28;20099;-66
2022/09/25 00:19:48;;;;;;;36.35;20.20;;;26.90;99.90;;;;;;5071711;28;20437;-66
2022/09/25 00:21:04;;;;;;;28.95;18.92;;;26.90;99.90;;;;;;5066141;28;20025;-66
2022/09/25 00:23:33;;;;;;;37.72;19.55;;;26.90;99.90;;;;;;5074826;28;20052;-66
2022/09/25 00:26:00;;;;;;;37.00;17.58;;;27.00;99.90;;;;;;5075019;28;20040;-66
2022/09/25 00:28:28;;;;;;;26.95;17.10;;;27.10;99.90;;;;;;5074902;28;20016;-66
2022/09/25 00:30:55;;;;;;;21.55;15.70;;;27.20;99.90;;;;;;5074653;28;20032;-66
2022/09/25 00:33:22;;;;;;;26.35;16.67;;;27.20;99.90;;;;;;5074701;28;20020;-66
2022/09/25 00:35:49;;;;;;;33.63;18.13;;;27.40;99.90;;;;;;5074707;28;20039;-66
2022/09/25 00:38:16;;;;;;;32.72;18.88;;;27.50;99.90;;;;;;5074590;28;20024;-66
2022/09/25 00:40:42;;;;;;;30.55;18.23;;;27.60;99.90;;;;;;5074661;28;20031;-65
2022/09/25 00:43:40;;;;;;;32.58;17.58;;;27.80;99.90;;;;;;5074725;28;20021;-65
2022/09/25 00:46:14;;;;;;;30.92;17.95;;;28.00;99.90;;;;;;5074403;28;20501;-66
2022/09/25 00:48:50;;;;;;;36.97;17.92;;;28.00;99.90;;;;;;5074407;28;20432;-65
2022/09/25 00:51:20;;;;;;;84.43;52.70;;;28.10;99.90;;;;;;5074578;28;20376;-65
2022/09/25 00:53:47;;;;;;;69.70;51.25;;;28.10;99.90;;;;;;5074465;28;20025;-65
2022/09/25 00:56:14;;;;;;;84.53;59.13;;;28.10;99.90;;;;;;5074221;28;20023;-66
2022/09/25 00:58:42;;;;;;;478.48;314.02;;;28.10;99.90;;;;;;5074298;28;20020;-66
2022/09/25 01:01:09;;;;;;;51.60;31.05;;;28.20;99.90;;;;;;5074288;28;20467;-66
2022/09/25 01:03:36;;;;;;;25.48;16.80;;;28.20;99.90;;;;;;5081722;28;20481;-65
2022/09/25 01:06:03;;;;;;;30.88;18.73;;;28.20;99.90;;;;;;5084201;28;20050;-66
2022/09/25 01:08:32;;;;;;;24.23;14.10;;;28.30;99.90;;;;;;5082772;28;20386;-65
2022/09/25 01:10:58;;;;;;;20.95;14.02;;;28.40;99.90;;;;;;5083209;28;20012;-65
2022/09/25 01:13:27;;;;;;;32.67;20.48;;;28.40;99.90;;;;;;5084475;28;20411;-65
2022/09/25 01:15:58;;;;;;;26.38;17.60;;;28.50;99.90;;;;;;5083302;28;20029;-69
2022/09/25 01:18:46;;;;;;;275.50;209.90;;;28.60;99.90;;;;;;5081888;28;20024;-70
2022/09/25 01:21:35;;;;;;;204.18;132.50;;;28.80;99.90;;;;;;4999067;28;20452;-68
2022/09/25 01:24:10;;;;;;;100.63;75.85;;;28.90;99.90;;;;;;5001428;28;20504;-67
2022/09/25 01:27:13;;;;;;;43.30;25.88;;;29.10;99.90;;;;;;5001435;28;20031;-69
2022/09/25 01:29:43;;;;;;;;;;;29.20;99.90;;;;;;5001051;28;20072;-69
2022/09/25 01:32:18;;;;;;;25.35;15.15;;;29.30;99.90;;;;;;4998379;28;20299;-69
2022/09/25 01:34:53;;;;;;;35.40;19.35;;;29.40;99.90;;;;;;4999975;28;20022;-68
2022/09/25 01:37:30;;;;;;;30.15;18.60;;;29.40;99.90;;;;;;5000270;28;20180;-69
2022/09/25 01:40:01;;;;;;;29.38;17.08;;;29.50;99.90;;;;;;4999893;28;20035;-68
2022/09/25 01:42:50;;;;;;;23.52;14.45;;;29.60;99.90;;;;;;4996830;28;20105;-69
2022/09/25 01:45:27;;;;;;;31.48;20.90;;;29.60;99.90;;;;;;4999902;28;20165;-68
2022/09/25 01:47:58;;;;;;;45.08;26.20;;;29.40;99.90;;;;;;4998695;28;20058;-69
2022/09/25 01:50:34;;;;;;;29.97;21.60;;;29.30;99.90;;;;;;4999756;28;20138;-68
2022/09/25 01:53:06;;;;;;;29.67;20.05;;;29.40;99.90;;;;;;5001825;28;20261;-67
2022/09/25 01:55:37;;;;;;;;;;;29.50;99.90;;;;;;4999072;28;20068;-68
2022/09/25 01:58:15;;;;;;;30.08;18.20;;;29.60;99.90;;;;;;5024184;28;19905;-67
2022/09/25 02:00:50;;;;;;;24.52;17.08;;;29.60;99.90;;;;;;5061265;28;20020;-68
2022/09/25 02:03:27;;;;;;;78.53;53.20;;;29.70;99.90;;;;;;5060775;28;20029;-70
2022/09/25 02:05:57;;;;;;;86.00;54.63;;;29.80;99.90;;;;;;5058457;28;20104;-68
2022/09/25 02:08:38;;;;;;;67.22;41.30;;;29.80;99.90;;;;;;5061553;28;20025;-67
2022/09/25 02:11:06;;;;;;;29.30;18.67;;;29.80;99.90;;;;;;5061105;28;20388;-67
2022/09/25 02:13:46;;;;;;;27.33;14.68;;;29.90;99.90;;;;;;5062488;28;20385;-68
2022/09/25 02:16:18;;;;;;;30.38;17.90;;;29.90;99.90;;;;;;5059696;28;20017;-68
2022/09/25 02:21:37;;;;;;;24.30;15.63;;;30.10;99.90;;;;;;5073026;28;20021;-68
2022/09/25 02:24:16;;;;;;;27.33;17.00;;;30.00;99.90;;;;;;5072997;28;21959;-69
2022/09/25 02:26:43;;;;;;;27.60;16.17;;;29.90;99.90;;;;;;5072904;28;20052;-68
2022/09/25 02:29:09;;;;;;;25.10;15.65;;;29.90;99.90;;;;;;5073014;28;20087;-68
2022/09/25 02:31:39;;;;;;;112.63;74.68;;;29.90;99.90;;;;;;5072948;28;20020;-69
2022/09/25 02:34:06;;;;;;;48.45;31.35;;;30.00;99.90;;;;;;5072826;28;20407;-68
2022/09/25 02:36:33;;;;;;;29.23;20.85;;;30.10;99.90;;;;;;5072959;28;20025;-68
2022/09/25 02:39:01;;;;;;;29.25;17.80;;;30.30;99.90;;;;;;5073243;28;20021;-69
2022/09/25 02:41:36;;;;;;;27.65;18.23;;;30.30;99.90;;;;;;5076690;28;20463;-69
2022/09/25 02:44:07;;;;;;;25.15;16.60;;;30.30;99.90;;;;;;5076592;28;20028;-69
2022/09/25 02:46:58;;;;;;;27.70;17.83;;;30.40;99.90;;;;;;5084438;28;20062;-69
2022/09/25 02:49:45;;;;;;;28.40;17.95;;;30.40;99.90;;;;;;5096493;28;20040;-69
2022/09/25 02:52:37;;;;;;;28.63;18.42;;;30.60;99.90;;;;;;5013345;28;20484;-66
2022/09/25 02:55:09;;;;;;;28.83;16.87;;;30.80;99.90;;;;;;5002722;28;20504;-68
2022/09/25 02:57:51;;;;;;;25.45;17.60;;;30.90;99.90;;;;;;5000522;28;20105;-69
2022/09/25 03:00:19;;;;;;;26.10;17.30;;;31.00;99.90;;;;;;5005222;28;20034;-69
2022/09/25 03:02:46;;;;;;;28.55;19.60;;;31.00;99.90;;;;;;5004347;28;20045;-68
2022/09/25 03:05:15;;;;;;;38.15;22.17;;;31.10;99.90;;;;;;5006066;28;20030;-66
2022/09/25 03:10:18;;;;;;;94.03;59.65;;;31.10;99.90;;;;;;5002527;28;20022;-68
2022/09/25 03:12:44;;;;;;;91.90;68.43;;;31.20;99.90;;;;;;5003573;28;20029;-68
2022/09/25 03:15:12;;;;;;;36.58;27.25;;;31.40;99.90;;;;;;5005835;28;20026;-68
2022/09/25 03:17:38;;;;;;;88.57;63.65;;;31.60;99.90;;;;;;5005049;28;20109;-68
2022/09/25 03:20:09;;;;;;;58.42;42.05;;;31.60;99.90;;;;;;5003934;28;20033;-67
2022/09/25 03:22:36;;;;;;;36.92;26.52;;;31.60;99.90;;;;;;5037088;28;20453;-67
2022/09/25 03:25:04;;;;;;;72.28;47.88;;;31.70;99.90;;;;;;5084448;28;20056;-67
2022/09/25 03:27:31;;;;;;;89.47;60.00;;;31.70;99.90;;;;;;5085775;28;20408;-67
2022/09/25 03:29:57;;;;;;;68.20;49.58;;;31.70;99.90;;;;;;5086149;28;20042;-66
2022/09/25 03:32:24;;;;;;;42.30;28.13;;;31.70;99.90;;;;;;5078710;28;20035;-66
2022/09/25 03:34:50;;;;;;;37.78;25.98;;;31.60;99.90;;;;;;5086050;28;20103;-67
2022/09/25 03:37:17;;;;;;;58.95;35.85;;;31.60;99.90;;;;;;5087238;28;20031;-66
2022/09/25 03:39:43;;;;;;;74.80;43.58;;;31.70;99.90;;;;;;5085680;28;20016;-67
2022/09/25 03:42:10;;;;;;;38.60;28.20;;;31.70;99.90;;;;;;5086543;28;20356;-67
2022/09/25 03:44:36;;;;;;;34.28;27.63;;;31.60;99.90;;;;;;5086066;28;20438;-67
2022/09/25 03:47:03;;;;;;;34.50;26.88;;;31.60;99.90;;;;;;5083167;28;20103;-67
2022/09/25 03:49:29;;;;;;;37.60;26.38;;;31.60;99.90;;;;;;5085701;28;20008;-65
2022/09/25 03:51:59;;;;;;;32.40;24.75;;;31.60;99.90;;;;;;5085257;28;20048;-66
2022/09/25 03:54:25;;;;;;;32.28;24.70;;;31.50;99.90;;;;;;5083369;28;20020;-67
2022/09/25 03:56:52;;;;;;;38.33;27.77;;;31.50;99.90;;;;;;5085076;28;20082;-66
2022/09/25 03:59:18;;;;;;;39.90;29.27;;;31.50;99.90;;;;;;5086564;28;20031;-67
2022/09/25 04:01:46;;;;;;;37.97;28.08;;;31.70;99.90;;;;;;5085162;28;20089;-68
2022/09/25 04:04:13;;;;;;;36.15;28.15;;;31.70;99.90;;;;;;5085323;28;20035;-68
2022/09/25 04:06:39;;;;;;;37.00;28.60;;;31.90;99.90;;;;;;5068823;28;20363;-67
2022/09/25 04:09:06;;;;;;;38.53;29.23;;;31.90;99.90;;;;;;5084681;28;20491;-66
2022/09/25 04:11:33;;;;;;;44.95;33.65;;;31.90;99.90;;;;;;5086182;28;20047;-66
2022/09/25 04:14:00;;;;;;;62.55;46.30;;;32.00;99.90;;;;;;5086193;28;20024;-66
2022/09/25 04:16:30;;;;;;;66.07;46.92;;;32.20;99.90;;;;;;5081700;28;20044;-69
2022/09/25 04:18:57;;;;;;;34.88;26.17;;;32.20;99.90;;;;;;5086046;28;20066;-67
2022/09/25 04:21:24;;;;;;;33.45;24.80;;;32.50;99.90;;;;;;5081962;28;20021;-68
2022/09/25 04:26:36;;;;;;;31.05;22.85;;;32.40;99.90;;;;;;5077441;28;20035;-66
2022/09/25 04:29:03;;;;;;;27.13;22.73;;;32.40;99.90;;;;;;5084756;28;20013;-68
2022/09/25 04:31:31;;;;;;;33.38;23.60;;;32.40;99.90;;;;;;5083140;28;20074;-68
2022/09/25 04:33:57;;;;;;;24.92;20.83;;;32.30;99.90;;;;;;5083288;28;20020;-68
2022/09/25 04:36:24;;;;;;;25.15;20.48;;;32.50;99.90;;;;;;5084973;28;20016;-67
2022/09/25 04:38:50;;;;;;;26.67;21.77;;;32.70;99.90;;;;;;5085116;28;20024;-69
2022/09/25 04:41:18;;;;;;;27.13;21.60;;;32.70;99.90;;;;;;5082947;28;20475;-67
2022/09/25 04:43:45;;;;;;;26.05;19.77;;;32.80;99.90;;;;;;5084271;28;20024;-67
2022/09/25 04:46:13;;;;;;;26.50;19.90;;;32.80;99.90;;;;;;5085356;28;20021;-67
2022/09/25 04:48:42;;;;;;;22.02;18.08;;;32.90;99.00;;;;;;5081234;28;20016;-69
2022/09/25 04:51:09;;;;;;;24.30;18.50;;;32.90;98.40;;;;;;5078486;28;20123;-68
2022/09/25 04:53:37;;;;;;;26.80;20.70;;;33.10;98.20;;;;;;5083048;28;20028;-68
2022/09/25 04:56:07;;;;;;;23.85;16.55;;;33.10;98.40;;;;;;5075022;28;20541;-68
2022/09/25 04:58:34;;;;;;;24.40;18.50;;;33.10;96.20;;;;;;5070619;28;20463;-69
2022/09/25 05:01:07;;;;;;;87.55;71.45;;;32.90;97.00;;;;;;5063643;28;20132;-67
2022/09/25 05:03:33;;;;;;;95.10;75.10;;;32.80;98.10;;;;;;5065015;28;20033;-69
2022/09/25 05:06:00;;;;;;;42.83;30.58;;;32.80;97.90;;;;;;5054576;28;20078;-68
2022/09/25 05:08:27;;;;;;;102.70;81.32;;;32.90;98.30;;;;;;5054233;28;20017;-68
2022/09/25 05:10:53;;;;;;;64.03;47.28;;;32.80;97.10;;;;;;5063177;28;20545;-69
2022/09/25 05:13:20;;;;;;;84.05;67.28;;;32.70;98.80;;;;;;5083633;28;20081;-67
2022/09/25 05:15:46;;;;;;;28.63;21.38;;;32.70;98.40;;;;;;5081483;28;20033;-68
2022/09/25 05:18:18;;;;;;;26.23;20.40;;;32.80;98.10;;;;;;5087472;28;20020;-66
2022/09/25 05:21:04;;;;;;;23.13;19.85;;;33.00;98.30;;;;;;5092027;28;20089;-66
2022/09/25 05:23:31;;;;;;;24.30;19.23;;;33.10;97.90;;;;;;5087876;28;20024;-68
2022/09/25 05:25:59;;;;;;;26.85;20.48;;;33.00;98.10;;;;;;5074796;28;20028;-68
2022/09/25 05:28:26;;;;;;;23.27;20.45;;;33.00;98.30;;;;;;5077470;28;20035;-68
2022/09/25 05:30:52;;;;;;;30.77;20.42;;;33.10;97.30;;;;;;5084873;28;20024;-67
2022/09/25 05:33:19;;;;;;;24.58;20.73;;;33.10;98.00;;;;;;5076464;28;20021;-69
2022/09/25 05:35:47;;;;;;;26.77;21.20;;;33.10;98.40;;;;;;5058365;28;20395;-69
2022/09/25 05:38:14;;;;;;;25.20;21.02;;;33.10;98.60;;;;;;5086205;28;20016;-70
2022/09/25 05:40:40;;;;;;;23.58;19.98;;;33.00;98.40;;;;;;5084690;28;20066;-69
2022/09/25 05:43:07;;;;;;;26.05;20.13;;;33.10;98.50;;;;;;5083971;28;20028;-69
2022/09/25 05:45:34;;;;;;;23.88;19.27;;;33.10;98.40;;;;;;5081864;28;20031;-69
2022/09/25 05:48:04;;;;;;;22.10;19.75;;;33.10;97.30;;;;;;5064020;28;20438;-68
2022/09/25 05:50:31;;;;;;;26.63;20.70;;;33.10;95.60;;;;;;5082225;28;20355;-68
2022/09/25 05:52:59;;;;;;;25.83;19.63;;;33.10;94.80;;;;;;5079616;28;20083;-67
2022/09/25 05:55:27;;;;;;;31.95;19.65;;;33.10;94.10;;;;;;5083277;28;20113;-68
2022/09/25 05:57:58;;;;;;;52.03;41.95;;;33.00;93.60;;;;;;5083684;28;20028;-69
2022/09/25 06:00:26;;;;;;;26.23;23.03;;;32.90;93.80;;;;;;5083287;28;20028;-69
2022/09/25 06:02:53;;;;;;;24.25;20.70;;;32.90;93.00;;;;;;5084782;28;20030;-69
2022/09/25 06:05:19;;;;;;;27.17;19.85;;;32.80;94.20;;;;;;5083067;28;20047;-69
2022/09/25 06:07:52;;;;;;;24.00;19.90;;;32.80;94.30;;;;;;5082559;28;20406;-70
2022/09/25 06:10:18;;;;;;;33.50;25.73;;;32.70;95.10;;;;;;5079507;28;20055;-70
2022/09/25 06:12:45;;;;;;;37.90;26.90;;;32.80;95.10;;;;;;5080782;28;20123;-71
2022/09/25 06:15:12;;;;;;;34.40;26.33;;;32.80;94.80;;;;;;5081566;28;20382;-70
2022/09/25 06:17:38;;;;;;;30.75;22.55;;;33.00;95.30;;;;;;5079629;28;20016;-69
2022/09/25 06:20:05;;;;;;;22.55;20.20;;;33.00;94.40;;;;;;5082740;28;20017;-70
2022/09/25 06:22:32;;;;;;;31.67;22.20;;;32.90;94.60;;;;;;5083994;28;20102;-71
2022/09/25 06:24:58;;;;;;;27.45;23.00;;;33.00;95.60;;;;;;5061143;28;20021;-70
2022/09/25 06:27:25;;;;;;;27.40;23.55;;;32.90;95.30;;;;;;5083311;28;20016;-70
2022/09/25 06:29:52;;;;;;;26.23;22.55;;;33.00;95.00;;;;;;5083823;28;20020;-68
2022/09/25 06:32:20;;;;;;;29.15;23.52;;;32.90;94.30;;;;;;5077736;28;20494;-69
2022/09/25 06:34:46;;;;;;;30.95;24.35;;;32.90;93.70;;;;;;5079369;28;20025;-71
2022/09/25 06:37:13;;;;;;;24.08;21.55;;;33.00;93.80;;;;;;5078387;28;20103;-67
2022/09/25 06:39:39;;;;;;;32.70;23.17;;;33.00;93.80;;;;;;5076983;28;20443;-67
2022/09/25 06:42:06;;;;;;;31.60;23.63;;;33.00;95.00;;;;;;5081086;28;20020;-67
2022/09/25 06:44:33;;;;;;;41.90;30.23;;;33.00;94.20;;;;;;5080982;28;20486;-68
2022/09/25 06:47:00;;;;;;;31.33;24.65;;;32.90;96.10;;;;;;5083237;28;20027;-67
2022/09/25 06:49:27;;;;;;;32.03;21.15;;;32.70;96.60;;;;;;5083252;28;20009;-68
2022/09/25 06:51:53;;;;;;;30.17;16.13;;;32.50;96.80;;;;;;5081039;28;20036;-68
2022/09/25 06:54:20;;;;;;;20.15;13.18;;;32.10;97.50;;;;;;5083711;28;20371;-68
2022/09/25 06:56:49;;;;;;;32.53;19.40;;;31.90;98.40;;;;;;5082802;28;20540;-68
2022/09/25 06:59:16;;;;;;;33.65;17.42;;;31.70;98.60;;;;;;5081094;28;20039;-68
2022/09/25 07:01:42;;;;;;;24.42;16.60;;;31.60;99.10;;;;;;5082664;28;20016;-68
2022/09/25 07:04:09;;;;;;;22.17;15.45;;;31.50;99.00;;;;;;5082803;28;20029;-69
2022/09/25 07:06:36;;;;;;;23.48;15.70;;;31.20;99.80;;;;;;5080815;28;20020;-69
2022/09/25 07:09:02;;;;;;;26.83;16.08;;;31.20;99.60;;;;;;5082415;28;20561;-69
2022/09/25 07:11:31;;;;;;;26.35;17.23;;;31.20;99.60;;;;;;5082711;28;20016;-70
2022/09/25 07:13:58;;;;;;;20.83;15.68;;;31.20;99.30;;;;;;5078284;28;20024;-71
2022/09/25 07:16:28;;;;;;;21.55;15.43;;;31.20;99.80;;;;;;5082223;28;20071;-70
2022/09/25 07:18:59;;;;;;;21.08;16.42;;;31.20;99.90;;;;;;5082620;28;20038;-69
2022/09/25 07:21:29;;;;;;;30.75;16.85;;;31.20;99.90;;;;;;5081965;28;20049;-70
2022/09/25 07:23:57;;;;;;;26.50;19.05;;;31.20;99.90;;;;;;5062848;28;20017;-69
2022/09/25 07:26:27;;;;;;;26.85;19.63;;;31.30;99.90;;;;;;5067065;28;20103;-70
2022/09/25 07:28:59;;;;;;;25.35;19.00;;;31.30;99.90;;;;;;5086543;28;20429;-69
2022/09/25 07:31:31;;;;;;;30.70;21.98;;;31.30;99.90;;;;;;5085771;28;20020;-69
2022/09/25 07:34:01;;;;;;;27.70;20.77;;;31.30;99.90;;;;;;5081561;28;20017;-70
2022/09/25 07:36:28;;;;;;;39.92;28.15;;;31.20;99.90;;;;;;5085140;28;20025;-68
2022/09/25 07:38:55;;;;;;;31.23;22.83;;;31.20;99.90;;;;;;5078605;28;20047;-69
2022/09/25 07:41:22;;;;;;;43.45;30.63;;;31.20;99.90;;;;;;5084982;28;20059;-69
2022/09/25 07:43:52;;;;;;;38.50;26.23;;;31.30;99.90;;;;;;5082414;28;20609;-65
2022/09/25 07:46:19;;;;;;;38.55;27.13;;;31.40;99.90;;;;;;5080417;28;20028;-68
2022/09/25 07:48:48;;;;;;;33.95;25.23;;;31.40;99.90;;;;;;5075605;28;20379;-69
2022/09/25 07:51:15;;;;;;;40.50;25.80;;;31.20;99.90;;;;;;5082610;28;20023;-70
2022/09/25 07:53:42;;;;;;;49.90;28.25;;;31.20;99.90;;;;;;5084225;28;20039;-69
2022/09/25 07:56:11;;;;;;;43.95;26.10;;;31.30;99.90;;;;;;5083924;28;20055;-68
2022/09/25 07:58:38;;;;;;;46.80;27.45;;;31.40;99.90;;;;;;5084625;28;20104;-67
2022/09/25 08:01:07;;;;;;;35.22;23.73;;;31.40;99.90;;;;;;5076990;28;20058;-68
2022/09/25 08:03:34;;;;;;;35.78;25.38;;;31.50;99.90;;;;;;5086402;28;20028;-68
2022/09/25 08:06:08;;;;;;;37.22;22.88;;;31.50;99.90;;;;;;5086069;28;20391;-69
2022/09/25 08:08:35;;;;;;;39.55;21.45;;;31.50;99.90;;;;;;5082812;28;20027;-67
2022/09/25 08:11:05;;;;;;;34.72;24.52;;;31.50;99.90;;;;;;5084663;28;20478;-68
2022/09/25 08:13:33;;;;;;;42.33;26.88;;;31.40;99.90;;;;;;5077962;28;20028;-69
2022/09/25 08:16:03;;;;;;;54.90;34.40;;;31.20;99.90;;;;;;5073595;28;20031;-71
2022/09/25 08:18:30;;;;;;;39.35;25.98;;;31.20;99.90;;;;;;5065212;28;20112;-68
2022/09/25 08:21:05;;;;;;;45.15;28.25;;;31.00;99.90;;;;;;5055351;28;20074;-69
2022/09/25 08:23:32;;;;;;;39.67;24.45;;;31.00;99.90;;;;;;5055724;28;20020;-74
2022/09/25 08:26:00;;;;;;;41.83;23.98;;;31.10;99.90;;;;;;5055230;28;20044;-68
2022/09/25 08:28:28;;;;;;;31.58;22.70;;;31.10;99.90;;;;;;5055160;28;20017;-68
2022/09/25 08:30:57;;;;;;;31.10;22.50;;;31.20;99.90;;;;;;5074962;28;20059;-69
2022/09/25 08:33:23;;;;;;;36.67;22.83;;;31.20;99.90;;;;;;5075025;28;20483;-68
2022/09/25 08:35:57;;;;;;;40.00;27.00;;;31.30;99.90;;;;;;5072639;28;20021;-69
2022/09/25 08:38:25;;;;;;;90.32;48.40;;;31.30;99.90;;;;;;5056813;28;20041;-69
2022/09/25 08:40:59;;;;;;;42.40;28.17;;;31.40;99.90;;;;;;5055220;28;20028;-69
2022/09/25 08:43:27;;;;;;;34.40;26.75;;;31.40;99.90;;;;;;5060352;28;20029;-69
2022/09/25 08:51:40;;;;;;;46.08;30.88;;;31.40;99.90;;;;;;5084852;28;20024;-69
2022/09/25 08:54:10;;;;;;;46.17;28.95;;;31.30;99.90;;;;;;5084717;28;20553;-69
2022/09/25 08:56:37;;;;;;;59.28;35.83;;;31.20;99.90;;;;;;5080236;28;20100;-70
2022/09/25 08:59:08;;;;;;;56.08;34.53;;;31.20;99.90;;;;;;5075771;28;20021;-69
2022/09/25 09:01:42;;;;;;;46.35;31.88;;;31.20;99.90;;;;;;5063581;28;20025;-69
2022/09/25 09:04:26;;;;;;;41.28;28.90;;;31.20;99.90;;;;;;5054558;28;20025;-69
2022/09/25 09:06:57;;;;;;;42.58;30.77;;;31.20;99.90;;;;;;5054480;28;20025;-72
2022/09/25 09:09:30;;;;;;;44.47;32.42;;;31.10;99.90;;;;;;5054434;28;20360;-69
2022/09/25 09:12:09;;;;;;;47.92;30.83;;;31.10;99.90;;;;;;5054241;28;20360;-69
2022/09/25 09:14:43;;;;;;;58.03;35.63;;;31.20;99.90;;;;;;5054092;28;20029;-69
2022/09/25 09:17:31;;;;;;;57.45;37.75;;;31.20;99.90;;;;;;5054495;28;20429;-71
2022/09/25 09:20:10;;;;;;;63.13;40.70;;;31.20;99.90;;;;;;5076476;28;20119;-71
2022/09/25 09:22:43;;;;;;;54.55;37.65;;;31.20;99.90;;;;;;5082593;28;20024;-70
2022/09/25 09:25:43;;;;;;;43.08;29.17;;;31.20;99.90;;;;;;5080635;28;20021;-69
2022/09/25 09:28:22;;;;;;;52.63;34.42;;;31.20;99.90;;;;;;5081006;28;20021;-69
2022/09/25 09:31:15;;;;;;;48.40;33.92;;;31.20;99.90;;;;;;5080707;28;20029;-66
2022/09/25 09:33:45;;;;;;;47.15;34.22;;;31.10;99.90;;;;;;5081944;28;20028;-69
2022/09/25 09:36:36;;;;;;;51.83;38.55;;;31.00;99.90;;;;;;5083794;28;20032;-70
2022/09/25 09:39:19;;;;;;;54.35;37.03;;;31.00;99.90;;;;;;4985715;28;20389;-69
2022/09/25 09:41:55;;;;;;;56.50;38.72;;;31.00;99.90;;;;;;5002995;28;20025;-70
2022/09/25 09:44:31;;;;;;;61.33;42.28;;;31.00;99.90;;;;;;5002365;28;20157;-70
2022/09/25 09:47:17;;;;;;;85.45;55.45;;;31.00;99.90;;;;;;5007630;28;20017;-67
2022/09/25 09:50:17;;;;;;;112.40;65.30;;;31.00;99.90;;;;;;5002850;28;20110;-68
2022/09/25 09:52:47;;;;;;;61.65;44.40;;;31.00;99.90;;;;;;4999500;28;20045;-68
2022/09/25 09:55:35;;;;;;;77.72;52.90;;;31.00;99.90;;;;;;5003101;28;20026;-68
2022/09/25 09:58:09;;;;;;;59.15;43.72;;;31.00;99.90;;;;;;5009186;28;20065;-68
2022/09/25 10:00:38;;;;;;;62.67;41.33;;;31.00;99.90;;;;;;5011773;28;20061;-68
2022/09/25 10:03:16;;;;;;;49.08;33.20;;;31.00;99.90;;;;;;5012106;28;20029;-68
2022/09/25 10:05:47;;;;;;;40.05;29.05;;;31.00;99.90;;;;;;5012223;28;20045;-68
2022/09/25 10:08:14;;;;;;;43.17;30.00;;;31.00;99.90;;;;;;5012197;28;20045;-70
2022/09/25 10:10:43;;;;;;;34.67;26.23;;;31.10;99.90;;;;;;5082227;28;20150;-72
2022/09/25 10:13:25;;;;;;;34.47;28.58;;;31.10;99.90;;;;;;5071052;28;20024;-73
2022/09/25 10:16:00;;;;;;;43.97;31.80;;;31.10;99.90;;;;;;5074343;28;20016;-71
2022/09/25 10:18:40;;;;;;;52.08;34.25;;;31.00;99.90;;;;;;5074557;28;20024;-72
2022/09/25 10:21:12;;;;;;;59.03;35.95;;;31.00;99.90;;;;;;5070977;28;20074;-72
2022/09/25 10:23:41;;;;;;;;;;;31.00;99.90;;;;;;5056617;28;20031;-72
2022/09/25 10:26:29;;;;;;;55.83;38.53;;;31.00;99.90;;;;;;5073335;28;20378;-71
2022/09/25 10:29:00;;;;;;;68.68;41.92;;;30.90;99.90;;;;;;5073188;28;20028;-71
2022/09/25 10:31:31;;;;;;;87.25;50.80;;;30.90;99.90;;;;;;5077218;28;20019;-71
2022/09/25 10:34:21;;;;;;;67.45;44.33;;;30.90;99.90;;;;;;5071237;28;20119;-71
2022/09/25 10:36:51;;;;;;;52.30;33.50;;;30.90;99.90;;;;;;5073572;28;20036;-71
2022/09/25 10:39:29;;;;;;;39.97;29.02;;;30.80;99.90;;;;;;5073739;28;20035;-71
2022/09/25 10:41:58;;;;;;;42.28;29.63;;;30.70;99.90;;;;;;5073268;28;20390;-71
2022/09/25 10:44:34;;;;;;;46.10;31.85;;;30.70;99.90;;;;;;5072753;28;20025;-72
2022/09/25 10:50:17;;;;;;;60.67;37.88;;;30.80;99.90;;;;;;5030930;28;20054;-71
2022/09/25 10:52:49;;;;;;;50.88;32.75;;;30.70;99.90;;;;;;5030469;28;20049;-70
2022/09/25 10:55:31;;;;;;;59.05;32.40;;;30.70;99.90;;;;;;5030824;28;20042;-66
2022/09/25 10:58:04;;;;;;;43.95;29.88;;;30.70;99.90;;;;;;5030677;28;20029;-68
2022/09/25 11:00:42;;;;;;;47.92;33.85;;;30.70;99.90;;;;;;5032208;28;20065;-66
2022/09/25 11:03:22;;;;;;;53.90;37.28;;;30.60;99.90;;;;;;5034790;28;20037;-65
2022/09/25 11:05:53;;;;;;;49.72;34.20;;;30.60;99.90;;;;;;5034522;28;20534;-66
2022/09/25 11:08:23;;;;;;;57.50;35.95;;;30.50;99.90;;;;;;5000669;28;20421;-65
2022/09/25 11:10:55;;;;;;;68.63;40.45;;;30.50;99.90;;;;;;5011731;28;20022;-67
2022/09/25 11:13:29;;;;;;;51.40;32.95;;;30.50;99.90;;;;;;4995259;28;20068;-66
2022/09/25 11:16:00;;;;;;;54.85;33.30;;;30.50;99.90;;;;;;4995057;28;20528;-65
2022/09/25 11:18:37;;;;;;;53.90;37.85;;;30.40;99.90;;;;;;4995098;28;20038;-65
2022/09/25 11:21:05;;;;;;;60.85;39.25;;;30.50;99.90;;;;;;4994985;28;20093;-66
2022/09/25 11:23:42;;;;;;;57.67;33.70;;;30.40;99.90;;;;;;4994945;28;20022;-66
2022/09/25 11:26:16;;;;;;;45.92;32.55;;;30.40;99.90;;;;;;5021868;28;20515;-65
2022/09/25 11:28:52;;;;;;;55.30;34.88;;;30.40;99.90;;;;;;5055966;28;20152;-65
2022/09/25 11:31:52;;;;;;;53.38;33.03;;;30.40;99.90;;;;;;5056244;28;20537;-65
2022/09/25 11:34:40;;;;;;;56.30;35.38;;;30.40;99.90;;;;;;4994703;28;20050;-66
2022/09/25 11:37:17;;;;;;;59.90;36.30;;;30.40;99.90;;;;;;4995459;28;20030;-65
2022/09/25 11:42:58;;;;;;;41.55;30.95;;;30.30;99.90;;;;;;4955120;28;20438;-69
2022/09/25 11:45:35;;;;;;;57.22;37.30;;;30.30;99.90;;;;;;4952360;29;20558;-64
2022/09/25 11:48:20;;;;;;;58.45;38.53;;;30.30;99.90;;;;;;4938923;29;20609;-67
2022/09/25 11:50:52;;;;;;;53.40;37.03;;;30.30;99.90;;;;;;4954893;29;20038;-67
2022/09/25 11:53:39;;;;;;;56.45;39.10;;;30.30;99.90;;;;;;4954326;29;20047;-68
2022/09/25 11:56:45;;;;;;;58.58;37.47;;;30.30;99.90;;;;;;4953709;28;20090;-67
2022/09/25 11:59:20;;;;;;;75.75;47.90;;;30.40;99.90;;;;;;4949517;28;20062;-67
2022/09/25 12:01:57;;;;;;;74.65;48.90;;;30.30;99.90;;;;;;4954543;29;20038;-67
2022/09/25 12:04:46;;;;;;;85.78;54.05;;;30.30;99.90;;;;;;4954214;29;20039;-67
2022/09/25 12:07:23;;;;;;;84.70;56.30;;;30.30;99.90;;;;;;4954265;29;20102;-67
2022/09/25 12:10:18;;;;;;;107.63;64.20;;;30.30;99.90;;;;;;4954366;29;20074;-68
2022/09/25 12:12:48;;;;;;;96.43;60.42;;;30.30;99.90;;;;;;4983541;28;20026;-68
2022/09/25 12:15:53;;;;;;;91.20;58.15;;;30.30;99.90;;;;;;4983011;28;20046;-67
2022/09/25 12:18:20;;;;;;;80.75;52.95;;;30.30;99.90;;;;;;4982285;28;20031;-67
2022/09/25 12:21:00;;;;;;;85.07;54.58;;;30.30;99.90;;;;;;4982120;28;20424;-65
2022/09/25 12:23:43;;;;;;;103.72;62.88;;;30.20;99.90;;;;;;4982009;28;20065;-65
2022/09/25 12:26:13;;;;;;;108.45;64.03;;;30.20;99.90;;;;;;4982398;28;20030;-66
2022/09/25 12:28:51;;;;;;;100.55;67.50;;;30.10;99.90;;;;;;4983096;28;20066;-65
2022/09/25 12:31:21;;;;;;;119.25;71.20;;;30.10;99.90;;;;;;4979870;28;20058;-64
2022/09/25 12:34:16;;;;;;;114.88;67.45;;;30.00;99.90;;;;;;4977188;28;20077;-66
2022/09/25 12:36:50;;;;;;;146.48;78.13;;;30.10;99.90;;;;;;4982952;28;20026;-64
2022/09/25 12:39:40;;;;;;;147.23;83.28;;;30.00;99.90;;;;;;5034524;28;20033;-64
2022/09/25 12:42:12;;;;;;;137.75;79.55;;;30.00;99.90;;;;;;5042639;28;20033;-64
2022/09/25 12:45:02;;;;;;;122.28;75.40;;;30.00;99.90;;;;;;5042419;28;20174;-64
2022/09/25 12:47:47;;;;;;;121.82;74.72;;;30.00;99.90;;;;;;5037152;28;20018;-64
2022/09/25 12:50:19;;;;;;;121.07;74.47;;;30.00;99.90;;;;;;5038620;28;20026;-65
2022/09/25 12:52:48;;;;;;;;;;;30.00;99.90;;;;;;5042908;28;20048;-65
2022/09/25 12:55:21;;;;;;;126.20;82.93;;;30.00;99.90;;;;;;5042961;28;20374;-65
2022/09/25 12:58:10;;;;;;;87.10;55.33;;;30.00;99.90;;;;;;5036694;28;20045;-65
2022/09/25 13:00:42;;;;;;;66.28;43.92;;;30.00;99.90;;;;;;5040110;28;20029;-65
2022/09/25 13:03:12;;;;;;;62.97;40.95;;;30.00;99.90;;;;;;5042508;28;20040;-64
2022/09/25 13:05:43;;;;;;;66.13;42.63;;;29.90;99.90;;;;;;5038935;28;20103;-65
2022/09/25 13:08:13;;;;;;;75.55;46.50;;;30.00;99.90;;;;;;5042101;28;20059;-65
2022/09/25 13:11:03;;;;;;;66.85;42.78;;;30.00;99.90;;;;;;5052631;28;20056;-66
2022/09/25 13:13:45;;;;;;;65.75;43.85;;;30.00;99.90;;;;;;5070785;28;20039;-66